Terminal Aerodrome Forecast
Issued by NWS Billings, MT

Home | Current Version | Previous Version | Text Only | Print | Product List | Glossary Off
Versions: 1 2 3 4 5 6 7 8 9 10 11 12 13 14 15 16

000
FTUS45 KBYZ 220530
TAFMLS
TAF
KMLS 220530Z 2206/2306 02005KT P6SM VCSH SCT110
     FM221500 31020G29KT P6SM FEW080 SCT100
     FM230300 33014KT P6SM FEW050=

USA.gov is the U.S. government's official web portal to all federal, state and local government web resources and services.